createdAt,value
2022-11-06T00:02:20.527Z,17.45
2022-11-06T00:04:48.741Z,17.00
2022-11-06T00:07:16.125Z,16.40
2022-11-06T00:09:43.493Z,18.75
2022-11-06T00:12:10.858Z,17.00
2022-11-06T00:14:38.189Z,19.77
2022-11-06T00:17:06.388Z,15.18
2022-11-06T00:19:33.702Z,15.30
2022-11-06T00:22:01.170Z,13.90
2022-11-06T00:24:28.583Z,16.77
2022-11-06T00:26:55.938Z,15.15
2022-11-06T00:29:23.394Z,13.73
2022-11-06T00:31:51.131Z,17.48
2022-11-06T00:34:18.536Z,18.83
2022-11-06T00:36:45.883Z,16.65
2022-11-06T00:39:13.302Z,18.42
2022-11-06T00:41:40.687Z,15.82
2022-11-06T00:44:09.767Z,11.43
2022-11-06T00:46:37.568Z,13.65
2022-11-06T00:49:04.987Z,16.35
2022-11-06T00:51:36.045Z,14.60
2022-11-06T00:54:05.469Z,14.23
2022-11-06T00:56:33.906Z,17.60
2022-11-06T00:59:03.000Z,9.27
2022-11-06T01:01:36.526Z,7.95
2022-11-06T01:04:15.412Z,13.80
2022-11-06T01:06:46.695Z,49.42
2022-11-06T01:09:22.344Z,36.43
2022-11-06T01:12:13.385Z,18.80
2022-11-06T01:14:42.834Z,16.75
2022-11-06T01:17:10.469Z,11.70
2022-11-06T01:19:37.927Z,10.65
2022-11-06T01:22:05.273Z,11.30
2022-11-06T01:24:33.312Z,14.95
2022-11-06T01:29:48.421Z,7.15
2022-11-06T01:32:15.772Z,10.40
2022-11-06T01:34:43.122Z,10.85
2022-11-06T01:37:14.496Z,8.77
2022-11-06T01:39:42.610Z,9.25
2022-11-06T01:42:12.328Z,13.43
2022-11-06T01:44:42.420Z,10.23
2022-11-06T01:47:23.368Z,12.20
2022-11-06T01:49:54.902Z,6.65
2022-11-06T01:52:24.521Z,8.18
2022-11-06T01:54:57.018Z,5.85
2022-11-06T01:57:25.104Z,7.85
2022-11-06T01:59:54.598Z,8.68
2022-11-06T02:02:22.717Z,7.25
2022-11-06T02:04:50.311Z,7.90
2022-11-06T02:07:20.010Z,6.50
2022-11-06T02:09:47.493Z,7.40
2022-11-06T02:12:20.936Z,8.43
2022-11-06T02:15:03.853Z,6.70
2022-11-06T02:18:03.715Z,8.50
2022-11-06T02:20:46.716Z,7.45
2022-11-06T02:23:53.258Z,9.80
2022-11-06T02:26:45.396Z,8.85
2022-11-06T02:29:22.348Z,7.38
2022-11-06T02:31:56.040Z,5.72
2022-11-06T02:34:26.568Z,13.68
2022-11-06T02:37:02.071Z,6.55
2022-11-06T02:39:31.981Z,7.55
2022-11-06T02:42:00.389Z,5.32
2022-11-06T02:44:32.706Z,6.22
2022-11-06T02:47:06.284Z,7.82
2022-11-06T02:49:49.003Z,5.72
2022-11-06T02:52:29.285Z,4.15
2022-11-06T02:55:09.797Z,5.85
2022-11-06T02:57:41.405Z,6.90
2022-11-06T03:00:14.994Z,2.60
2022-11-06T03:02:45.426Z,5.85
2022-11-06T03:05:26.509Z,3.10
2022-11-06T03:08:17.901Z,3.00
2022-11-06T03:11:12.165Z,3.72
2022-11-06T03:13:54.733Z,3.85
2022-11-06T03:16:55.152Z,4.30
2022-11-06T03:19:34.924Z,3.35
2022-11-06T03:22:14.216Z,4.57
2022-11-06T03:24:50.885Z,4.43
2022-11-06T03:27:33.368Z,3.95
2022-11-06T03:33:03.313Z,8.27
2022-11-06T03:35:51.803Z,6.32
2022-11-06T03:38:37.216Z,6.32
2022-11-06T03:41:22.449Z,5.63
2022-11-06T03:43:52.980Z,5.35
2022-11-06T03:46:25.036Z,7.45
2022-11-06T03:49:06.379Z,6.88
2022-11-06T03:51:47.479Z,6.78
2022-11-06T03:54:21.772Z,7.28
2022-11-06T03:56:56.968Z,8.73
2022-11-06T03:59:29.606Z,6.40
2022-11-06T04:01:58.986Z,9.63
2022-11-06T04:04:38.743Z,8.63
2022-11-06T04:07:10.010Z,4.95
2022-11-06T04:09:59.185Z,8.45
2022-11-06T04:13:04.772Z,6.38
2022-11-06T04:15:38.674Z,6.82
2022-11-06T04:18:14.260Z,6.00
2022-11-06T04:21:16.239Z,11.88
2022-11-06T04:24:29.515Z,6.63
2022-11-06T04:27:21.892Z,7.07
2022-11-06T04:30:04.302Z,10.40
2022-11-06T04:32:40.572Z,5.82
2022-11-06T04:36:06.956Z,4.85
2022-11-06T04:38:53.568Z,5.55
2022-11-06T04:41:24.643Z,4.28
2022-11-06T04:44:00.224Z,4.20
2022-11-06T04:46:39.172Z,6.53
2022-11-06T04:49:07.709Z,4.93
2022-11-06T04:51:39.446Z,5.60
2022-11-06T04:54:09.816Z,6.10
2022-11-06T04:56:41.462Z,5.35
2022-11-06T04:59:16.153Z,6.38
2022-11-06T05:01:44.301Z,5.85
2022-11-06T05:04:12.383Z,4.22
2022-11-06T05:06:39.731Z,6.68
2022-11-06T05:09:07.084Z,10.38
2022-11-06T05:11:34.439Z,5.32
2022-11-06T05:14:01.965Z,5.13
2022-11-06T05:16:29.327Z,4.90
2022-11-06T05:18:56.699Z,4.65
2022-11-06T05:21:42.529Z,5.38
2022-11-06T05:24:10.128Z,6.18
2022-11-06T05:26:37.548Z,5.78
2022-11-06T05:29:05.126Z,5.35
2022-11-06T05:31:32.483Z,11.02
2022-11-06T05:33:59.974Z,5.72
2022-11-06T05:36:27.307Z,9.05
2022-11-06T05:38:54.759Z,5.25
2022-11-06T05:41:22.129Z,7.32
2022-11-06T05:43:49.716Z,6.40
2022-11-06T05:46:46.567Z,7.00
2022-11-06T05:49:04.464Z,6.15
2022-11-06T05:51:31.818Z,5.43
2022-11-06T05:54:03.190Z,6.07
2022-11-06T05:56:30.568Z,5.35
2022-11-06T05:58:58.045Z,7.30
2022-11-06T06:01:25.535Z,9.68
2022-11-06T06:03:52.944Z,6.32
2022-11-06T06:06:21.159Z,7.07
2022-11-06T06:08:48.539Z,8.88
2022-11-06T06:11:15.955Z,6.88
2022-11-06T06:13:43.375Z,8.57
2022-11-06T06:16:10.805Z,11.05
2022-11-06T06:18:38.224Z,9.93
2022-11-06T06:21:05.739Z,9.65
2022-11-06T06:23:33.079Z,9.63
2022-11-06T06:26:00.440Z,12.32
2022-11-06T06:28:27.845Z,13.27
2022-11-06T06:31:00.987Z,13.73
2022-11-06T06:33:29.101Z,15.90
2022-11-06T06:35:56.450Z,16.95
2022-11-06T06:38:23.956Z,11.27
2022-11-06T06:40:51.455Z,9.40
2022-11-06T06:43:18.803Z,12.20
2022-11-06T06:45:46.154Z,11.27
2022-11-06T06:48:13.759Z,13.60
2022-11-06T06:50:41.402Z,8.35
2022-11-06T06:53:08.761Z,11.88
2022-11-06T06:55:36.969Z,6.03
2022-11-06T06:58:04.364Z,9.95
2022-11-06T07:00:31.829Z,9.15
2022-11-06T07:02:59.184Z,6.95
2022-11-06T07:05:26.545Z,8.98
2022-11-06T07:07:54.040Z,10.30
2022-11-06T07:10:21.421Z,6.43
2022-11-06T07:12:48.867Z,5.47
2022-11-06T07:15:16.265Z,7.75
2022-11-06T07:17:43.644Z,6.82
2022-11-06T07:20:11.676Z,7.63
2022-11-06T07:22:39.032Z,5.80
2022-11-06T07:25:06.736Z,9.15
2022-11-06T07:27:34.984Z,7.88
2022-11-06T07:30:02.443Z,5.82
2022-11-06T07:32:30.258Z,9.13
2022-11-06T07:34:57.615Z,6.50
2022-11-06T07:37:25.040Z,19.90
2022-11-06T07:39:52.424Z,17.60
2022-11-06T07:42:19.849Z,8.02
2022-11-06T07:44:58.347Z,7.40
2022-11-06T07:47:27.634Z,4.03
2022-11-06T07:49:56.085Z,6.75
2022-11-06T07:52:23.561Z,6.00
2022-11-06T07:54:50.931Z,4.50
2022-11-06T07:57:18.372Z,5.55
2022-11-06T07:59:45.780Z,8.82
2022-11-06T08:02:13.798Z,9.05
2022-11-06T08:04:41.373Z,3.80
2022-11-06T08:07:09.104Z,12.43
2022-11-06T08:09:36.515Z,5.32
2022-11-06T08:12:04.109Z,4.45
2022-11-06T08:14:31.481Z,6.95
2022-11-06T08:16:58.917Z,6.80
2022-11-06T08:19:26.439Z,7.10
2022-11-06T08:21:53.789Z,10.48
2022-11-06T08:24:22.256Z,8.82
2022-11-06T08:26:49.997Z,3.80
2022-11-06T08:29:17.524Z,6.63
2022-11-06T08:31:44.963Z,4.97
2022-11-06T08:34:12.442Z,7.55
2022-11-06T08:36:49.255Z,13.57
2022-11-06T08:39:17.326Z,6.60
2022-11-06T08:41:45.241Z,6.32
2022-11-06T08:44:12.656Z,5.78
2022-11-06T08:46:40.022Z,5.65
2022-11-06T08:49:07.580Z,8.35
2022-11-06T08:51:34.927Z,6.25
2022-11-06T08:54:02.420Z,5.82
2022-11-06T08:56:29.829Z,8.82
2022-11-06T08:58:57.235Z,7.78
2022-11-06T09:01:24.699Z,5.97
2022-11-06T09:03:53.827Z,4.82
2022-11-06T09:06:21.196Z,5.28
2022-11-06T09:08:48.557Z,6.55
2022-11-06T09:11:15.948Z,4.18
2022-11-06T09:13:43.333Z,5.43
2022-11-06T09:16:15.553Z,58.95
2022-11-06T09:18:44.092Z,5.32
2022-11-06T09:21:11.429Z,4.50
2022-11-06T09:23:38.856Z,6.28
2022-11-06T09:26:06.231Z,5.10
2022-11-06T09:28:33.640Z,5.25
2022-11-06T09:31:02.475Z,7.25
2022-11-06T09:33:29.832Z,3.83
2022-11-06T09:35:57.215Z,5.03
2022-11-06T09:38:24.673Z,4.93
2022-11-06T09:40:55.166Z,6.07
2022-11-06T09:44:07.192Z,5.43
2022-11-06T09:46:46.294Z,8.37
2022-11-06T09:49:26.479Z,5.03
2022-11-06T09:52:03.116Z,4.32
2022-11-06T09:54:56.256Z,5.68
2022-11-06T09:57:39.742Z,5.50
2022-11-06T10:00:12.248Z,5.32
2022-11-06T10:02:53.053Z,6.15
2022-11-06T10:05:38.036Z,4.50
2022-11-06T10:08:24.349Z,4.10
2022-11-06T10:11:07.648Z,5.50
2022-11-06T10:13:53.085Z,5.97
2022-11-06T10:16:44.591Z,7.13
2022-11-06T10:19:28.640Z,7.72
2022-11-06T10:22:16.062Z,4.97
2022-11-06T10:25:08.797Z,7.70
2022-11-06T10:30:19.020Z,6.82
2022-11-06T10:33:14.882Z,7.18
2022-11-06T10:36:18.055Z,8.73
2022-11-06T10:38:49.118Z,8.95
2022-11-06T10:41:21.435Z,7.90
2022-11-06T10:43:59.818Z,10.13
2022-11-06T10:46:34.410Z,7.15
2022-11-06T10:49:26.409Z,6.60
2022-11-06T10:51:59.686Z,7.32
2022-11-06T10:54:43.246Z,7.57
2022-11-06T10:57:31.729Z,8.32
2022-11-06T10:59:59.248Z,11.55
2022-11-06T11:02:37.559Z,7.60
2022-11-06T11:05:20.014Z,10.52
2022-11-06T11:07:50.553Z,5.35
2022-11-06T11:10:24.180Z,7.20
2022-11-06T11:12:54.181Z,4.88
2022-11-06T11:15:23.574Z,9.98
2022-11-06T11:18:12.417Z,8.50
2022-11-06T11:20:42.208Z,6.60
2022-11-06T11:23:23.150Z,6.32
2022-11-06T11:26:17.701Z,6.38
2022-11-06T11:28:55.179Z,5.55
2022-11-06T11:31:33.236Z,7.00
2022-11-06T11:34:04.705Z,6.07
2022-11-06T11:36:50.645Z,6.50
2022-11-06T11:39:20.603Z,4.22
2022-11-06T11:41:47.952Z,3.90
2022-11-06T11:44:17.868Z,6.45
2022-11-06T11:46:53.791Z,4.75
2022-11-06T11:49:31.053Z,8.75
2022-11-06T11:52:04.193Z,6.60
2022-11-06T11:54:35.953Z,5.45
2022-11-06T11:57:17.886Z,6.05
2022-11-06T11:59:56.337Z,4.82
2022-11-06T12:02:28.119Z,7.72
2022-11-06T12:05:03.307Z,9.45
2022-11-06T12:07:35.909Z,5.68
2022-11-06T12:10:25.273Z,9.15
2022-11-06T12:12:53.969Z,5.75
2022-11-06T12:15:34.333Z,6.70
2022-11-06T12:18:06.186Z,9.10
2022-11-06T12:20:37.356Z,10.20
2022-11-06T12:23:07.238Z,5.88
2022-11-06T12:25:42.583Z,6.47
2022-11-06T12:28:17.206Z,5.90
2022-11-06T12:31:00.261Z,5.43
2022-11-06T12:34:04.003Z,4.53
2022-11-06T12:36:20.920Z,6.13
2022-11-06T12:39:06.132Z,6.95
2022-11-06T12:41:41.238Z,4.47
2022-11-06T12:44:16.197Z,6.75
2022-11-06T12:47:05.478Z,6.28
2022-11-06T12:49:47.205Z,5.25
2022-11-06T12:52:46.305Z,5.97
2022-11-06T12:55:23.878Z,5.60
2022-11-06T12:58:34.531Z,4.85
2022-11-06T13:01:04.824Z,5.05
2022-11-06T13:03:56.070Z,3.83
2022-11-06T13:07:00.929Z,4.40
2022-11-06T13:10:16.966Z,7.90
2022-11-06T13:12:47.176Z,6.28
2022-11-06T13:15:33.940Z,5.88
2022-11-06T13:18:22.545Z,5.05
2022-11-06T13:21:16.629Z,8.30
2022-11-06T13:23:54.380Z,6.85
2022-11-06T13:26:44.660Z,9.48
2022-11-06T13:29:15.925Z,6.03
2022-11-06T13:31:52.412Z,4.30
2022-11-06T13:34:27.659Z,5.22
2022-11-06T13:36:56.306Z,6.90
2022-11-06T13:39:41.211Z,5.13
2022-11-06T13:42:29.244Z,5.57
2022-11-06T13:44:57.888Z,4.82
2022-11-06T13:47:41.275Z,4.43
2022-11-06T13:50:20.619Z,4.43
2022-11-06T13:53:13.811Z,5.68
2022-11-06T13:56:19.499Z,4.00
2022-11-06T13:59:15.460Z,5.13
2022-11-06T14:01:49.106Z,12.93
2022-11-06T14:04:53.735Z,9.98
2022-11-06T14:07:22.917Z,7.00
2022-11-06T14:09:50.483Z,8.48
2022-11-06T14:12:21.957Z,9.00
2022-11-06T14:14:53.308Z,7.87
2022-11-06T14:17:24.714Z,8.02
2022-11-06T14:19:52.030Z,7.17
2022-11-06T14:22:38.950Z,13.75
2022-11-06T14:25:30.989Z,8.63
2022-11-06T14:27:59.200Z,9.27
2022-11-06T14:30:50.401Z,11.43
2022-11-06T14:33:41.989Z,7.80
2022-11-06T14:38:42.701Z,9.27
2022-11-06T14:41:35.024Z,12.90
2022-11-06T14:44:24.743Z,10.82
2022-11-06T14:46:58.342Z,9.52
2022-11-06T14:49:46.394Z,9.57
2022-11-06T14:52:15.996Z,10.25
2022-11-06T14:55:05.759Z,10.05
2022-11-06T14:57:53.724Z,13.38
2022-11-06T15:00:50.773Z,11.40
2022-11-06T15:03:30.121Z,8.05
2022-11-06T15:06:08.129Z,16.40
2022-11-06T15:09:05.069Z,9.85
2022-11-06T15:11:32.466Z,11.98
2022-11-06T15:14:04.642Z,11.60
2022-11-06T15:16:40.862Z,13.90
2022-11-06T15:19:15.001Z,20.58
2022-11-06T15:22:09.558Z,14.80
2022-11-06T15:24:47.973Z,15.20
2022-11-06T15:27:20.394Z,11.88
2022-11-06T15:32:32.426Z,17.63
2022-11-06T15:35:19.667Z,17.45
2022-11-06T15:37:51.053Z,19.58
2022-11-06T15:40:30.699Z,16.38
2022-11-06T15:43:06.443Z,18.08
2022-11-06T15:45:33.883Z,19.10
2022-11-06T15:48:04.280Z,17.48
2022-11-06T15:50:37.221Z,19.85
2022-11-06T15:53:14.332Z,18.52
2022-11-06T15:55:56.841Z,14.52
2022-11-06T15:58:34.293Z,16.90
2022-11-06T16:01:03.964Z,18.95
2022-11-06T16:03:52.999Z,19.35
2022-11-06T16:06:21.321Z,20.40
2022-11-06T16:08:50.886Z,23.90
2022-11-06T16:11:19.747Z,23.33
2022-11-06T16:13:47.778Z,18.40
2022-11-06T16:16:41.486Z,18.73
2022-11-06T16:19:23.869Z,24.75
2022-11-06T16:22:03.281Z,23.30
2022-11-06T16:24:34.227Z,31.35
2022-11-06T16:27:06.505Z,29.05
2022-11-06T16:29:35.068Z,29.52
2022-11-06T16:32:15.048Z,37.05
2022-11-06T16:34:45.842Z,26.92
2022-11-06T16:37:16.028Z,26.02
2022-11-06T16:39:52.482Z,28.95
2022-11-06T16:42:23.088Z,29.52
2022-11-06T16:45:17.884Z,29.70
2022-11-06T16:48:08.172Z,27.00
2022-11-06T16:50:51.576Z,24.33
2022-11-06T16:53:30.799Z,23.75
2022-11-06T16:56:01.454Z,26.42
2022-11-06T16:58:41.673Z,31.67
2022-11-06T17:01:09.241Z,32.83
2022-11-06T17:03:48.692Z,58.60
2022-11-06T17:06:31.806Z,34.10
2022-11-06T17:09:07.896Z,30.67
2022-11-06T17:11:37.187Z,27.83
2022-11-06T17:14:16.541Z,28.20
2022-11-06T17:16:59.130Z,29.85
2022-11-06T17:21:54.651Z,43.45
2022-11-06T17:24:38.104Z,43.17
2022-11-06T17:27:06.438Z,40.67
2022-11-06T17:29:36.132Z,37.22
2022-11-06T17:32:06.484Z,42.38
2022-11-06T17:34:33.930Z,37.83
2022-11-06T17:37:01.456Z,38.75
2022-11-06T17:39:28.835Z,36.92
2022-11-06T17:41:56.240Z,37.95
2022-11-06T17:44:23.591Z,40.00
2022-11-06T17:46:51.041Z,40.60
2022-11-06T17:49:19.011Z,38.40
2022-11-06T17:51:53.322Z,39.65
2022-11-06T17:54:23.197Z,38.75
2022-11-06T17:56:51.576Z,34.58
2022-11-06T17:59:19.826Z,32.67
2022-11-06T18:01:47.841Z,27.58
2022-11-06T18:04:15.463Z,33.08
2022-11-06T18:06:47.975Z,26.10
2022-11-06T18:09:16.010Z,24.38
2022-11-06T18:11:43.964Z,33.90
2022-11-06T18:14:12.024Z,33.05
2022-11-06T18:16:43.614Z,21.02
2022-11-06T18:19:14.238Z,27.60
2022-11-06T18:21:41.631Z,24.92
2022-11-06T18:24:09.242Z,21.83
2022-11-06T18:26:40.043Z,18.30
2022-11-06T18:29:08.838Z,25.25
2022-11-06T18:31:36.213Z,28.08
2022-11-06T18:34:05.075Z,38.13
2022-11-06T18:36:34.999Z,28.23
2022-11-06T18:39:04.061Z,19.33
2022-11-06T18:41:32.035Z,26.95
2022-11-06T18:44:00.025Z,26.10
2022-11-06T18:46:28.187Z,27.35
2022-11-06T18:48:58.824Z,59.90
2022-11-06T18:51:36.183Z,56.10
2022-11-06T18:54:08.635Z,21.80
2022-11-06T18:59:12.451Z,47.60
2022-11-06T19:01:39.935Z,48.13
2022-11-06T19:04:08.403Z,62.55
2022-11-06T19:06:37.933Z,41.42
2022-11-06T19:09:07.377Z,32.58
2022-11-06T19:11:34.813Z,22.15
2022-11-06T19:14:02.214Z,24.23
2022-11-06T19:16:29.605Z,20.15
2022-11-06T19:21:30.742Z,23.17
2022-11-06T19:24:05.777Z,23.05
2022-11-06T19:26:35.619Z,26.38
2022-11-06T19:29:05.512Z,26.63
2022-11-06T19:31:33.217Z,24.50
2022-11-06T19:34:02.145Z,23.60
2022-11-06T19:36:31.376Z,26.52
2022-11-06T19:38:59.262Z,33.47
2022-11-06T19:41:27.874Z,27.33
2022-11-06T19:43:55.580Z,59.58
2022-11-06T19:46:31.094Z,35.17
2022-11-06T19:49:04.051Z,28.75
2022-11-06T19:51:33.183Z,24.65
2022-11-06T19:54:01.667Z,32.97
2022-11-06T19:56:29.236Z,28.65
2022-11-06T19:58:56.623Z,29.27
2022-11-06T20:01:24.319Z,31.25
2022-11-06T20:03:51.744Z,28.60
2022-11-06T20:06:19.124Z,49.58
2022-11-06T20:08:50.519Z,41.70
2022-11-06T20:11:18.736Z,51.20
2022-11-06T20:13:46.636Z,60.28
2022-11-06T20:16:16.966Z,49.50
2022-11-06T20:18:50.184Z,73.57
2022-11-06T20:21:17.809Z,82.13
2022-11-06T20:23:45.196Z,68.97
2022-11-06T20:26:12.690Z,58.38
2022-11-06T20:28:40.253Z,33.78
2022-11-06T20:31:09.947Z,23.17
2022-11-06T20:33:37.634Z,19.85
2022-11-06T20:36:17.349Z,31.92
2022-11-06T20:38:49.963Z,36.72
2022-11-06T20:41:17.549Z,31.08
2022-11-06T20:43:45.445Z,29.88
2022-11-06T20:46:14.888Z,29.70
2022-11-06T20:48:44.798Z,43.63
2022-11-06T20:51:14.868Z,25.00
2022-11-06T20:53:42.665Z,25.17
2022-11-06T20:56:12.391Z,25.42
2022-11-06T20:58:39.967Z,34.58
2022-11-06T21:01:10.433Z,32.00
2022-11-06T21:03:39.768Z,27.92
2022-11-06T21:06:08.249Z,38.80
2022-11-06T21:08:38.222Z,25.20
2022-11-06T21:11:14.317Z,32.90
2022-11-06T21:13:42.581Z,33.47
2022-11-06T21:16:16.889Z,38.88
2022-11-06T21:18:45.312Z,33.30
2022-11-06T21:21:15.809Z,32.65
2022-11-06T21:23:43.340Z,73.90
2022-11-06T21:26:13.970Z,65.90
2022-11-06T21:28:43.493Z,27.20
2022-11-06T21:31:12.720Z,23.02
2022-11-06T21:33:41.607Z,19.27
2022-11-06T21:36:17.802Z,23.95
2022-11-06T21:38:45.769Z,22.15
2022-11-06T21:41:15.922Z,23.40
2022-11-06T21:43:43.739Z,17.42
2022-11-06T21:46:12.658Z,19.02
2022-11-06T21:48:46.320Z,24.35
2022-11-06T21:51:24.266Z,22.67
2022-11-06T21:54:10.120Z,19.80
2022-11-06T21:56:38.695Z,18.02
2022-11-06T21:59:09.304Z,19.77
2022-11-06T22:01:37.738Z,19.55
2022-11-06T22:04:05.973Z,18.45
2022-11-06T22:06:33.705Z,21.60
2022-11-06T22:09:02.209Z,23.00
2022-11-06T22:11:32.473Z,21.98
2022-11-06T22:14:02.648Z,16.35
2022-11-06T22:16:36.459Z,19.70
2022-11-06T22:19:06.748Z,16.98
2022-11-06T22:21:35.694Z,14.50
2022-11-06T22:24:03.215Z,15.75
2022-11-06T22:26:32.924Z,19.13
2022-11-06T22:29:02.705Z,13.15
2022-11-06T22:31:30.376Z,23.90
2022-11-06T22:33:57.936Z,17.27
2022-11-06T22:36:26.058Z,16.80
2022-11-06T22:38:53.717Z,16.77
2022-11-06T22:41:24.173Z,17.80
2022-11-06T22:43:52.369Z,17.45
2022-11-06T22:46:22.269Z,17.52
2022-11-06T22:48:50.817Z,18.35
2022-11-06T22:51:22.013Z,19.90
2022-11-06T22:53:52.880Z,21.70
2022-11-06T22:56:22.166Z,17.50
2022-11-06T22:58:54.546Z,19.45
2022-11-06T23:01:23.673Z,15.38
2022-11-06T23:03:51.236Z,15.85
2022-11-06T23:06:18.637Z,17.40
2022-11-06T23:08:47.317Z,16.45
2022-11-06T23:11:17.276Z,16.00
2022-11-06T23:13:44.756Z,14.57
2022-11-06T23:16:15.140Z,17.73
2022-11-06T23:18:42.627Z,16.88
2022-11-06T23:21:14.847Z,17.02
2022-11-06T23:26:15.355Z,11.63
2022-11-06T23:28:43.583Z,12.70
2022-11-06T23:31:12.503Z,14.95
2022-11-06T23:33:39.966Z,12.82
2022-11-06T23:36:08.854Z,14.13
2022-11-06T23:38:36.411Z,14.48
2022-11-06T23:41:35.175Z,14.80
2022-11-06T23:44:04.380Z,13.20
2022-11-06T23:46:33.359Z,17.00
2022-11-06T23:49:00.735Z,17.13
2022-11-06T23:51:28.396Z,13.32
2022-11-06T23:53:55.745Z,12.23
2022-11-06T23:56:23.103Z,17.20
2022-11-06T23:58:50.447Z,17.13
